Lake Centralia, Illinois
Current Conditions -  °F | °C
As of 10:54 AM on Monday 22 Dec 2014 (Local Time) from KSET Reporting Station
Light Rain Light Rain  
Wind Chill: 39°   Ceiling: 700
Heat Index: 43°   Visibility: 4mi
Dew Point: 42°   Wind: 7mph
Humidity: 97%   Direction: 160°SSE
Pressure: 29.69"   Gusts: NA
Location:  39.2808°N, 90.272°W
Report Text: KSET 221654Z AUTO 16006KT 4SM -RA BR OVC007 06/06 A2969 RMK AO2 SLP055 P0002 T00610056
Loading
Personal Weather Stations






























Interactive Weather Map New forecast layout! Learn more

10-Day Weather Forecast

Advertisements
Track Severe Weather on mobile